createdAt,value
2018-10-05T00:02:27.051Z,18.52
2018-10-05T00:04:54.391Z,18.38
2018-10-05T00:07:21.763Z,18.42
2018-10-05T00:09:49.049Z,18.40
2018-10-05T00:12:16.369Z,18.34
2018-10-05T00:14:43.645Z,18.24
2018-10-05T00:17:10.974Z,18.25
2018-10-05T00:19:38.276Z,18.18
2018-10-05T00:22:05.808Z,18.12
2018-10-05T00:24:33.164Z,18.04
2018-10-05T00:27:00.433Z,17.99
2018-10-05T00:29:27.760Z,17.96
2018-10-05T00:31:55.061Z,17.90
2018-10-05T00:34:22.419Z,17.96
2018-10-05T00:36:49.721Z,17.88
2018-10-05T00:39:17.052Z,17.89
2018-10-05T00:41:44.342Z,17.89
2018-10-05T00:44:11.626Z,17.76
2018-10-05T00:46:38.913Z,17.81
2018-10-05T00:49:06.169Z,17.74
2018-10-05T00:51:33.586Z,17.77
2018-10-05T00:54:00.972Z,17.83
2018-10-05T00:56:28.310Z,17.86
2018-10-05T00:58:55.638Z,17.95
2018-10-05T01:01:22.905Z,17.95
2018-10-05T01:03:50.232Z,17.83
2018-10-05T01:06:17.506Z,17.79
2018-10-05T01:08:44.823Z,17.77
2018-10-05T01:11:12.076Z,17.77
2018-10-05T01:13:39.412Z,17.66
2018-10-05T01:16:06.757Z,17.54
2018-10-05T01:18:34.034Z,17.51
2018-10-05T01:21:01.468Z,17.50
2018-10-05T01:23:28.744Z,17.44
2018-10-05T01:25:56.068Z,17.34
2018-10-05T01:28:23.347Z,17.28
2018-10-05T01:30:50.719Z,17.14
2018-10-05T01:33:17.969Z,17.14
2018-10-05T01:35:45.285Z,17.07
2018-10-05T01:38:12.667Z,16.90
2018-10-05T01:40:39.898Z,16.95
2018-10-05T01:43:07.227Z,16.92
2018-10-05T01:45:34.529Z,16.84
2018-10-05T01:48:01.836Z,16.84
2018-10-05T01:50:29.131Z,16.87
2018-10-05T01:52:56.551Z,16.68
2018-10-05T01:55:23.881Z,16.73
2018-10-05T01:57:51.144Z,16.73
2018-10-05T02:00:18.460Z,16.71
2018-10-05T02:02:45.861Z,16.74
2018-10-05T02:05:13.118Z,16.70
2018-10-05T02:07:40.476Z,16.68
2018-10-05T02:10:07.770Z,16.57
2018-10-05T02:12:35.101Z,16.44
2018-10-05T02:15:02.411Z,16.48
2018-10-05T02:17:29.756Z,16.45
2018-10-05T02:19:57.008Z,16.48
2018-10-05T02:22:24.310Z,16.49
2018-10-05T02:24:51.584Z,16.42
2018-10-05T02:27:18.908Z,16.43
2018-10-05T02:29:46.188Z,16.40
2018-10-05T02:32:13.539Z,16.42
2018-10-05T02:34:40.823Z,16.42
2018-10-05T02:37:08.176Z,16.43
2018-10-05T02:39:35.416Z,16.42
2018-10-05T02:42:03.577Z,16.44
2018-10-05T02:44:30.858Z,16.40
2018-10-05T02:46:58.270Z,16.32
2018-10-05T02:49:25.563Z,16.27
2018-10-05T02:51:52.858Z,16.17
2018-10-05T02:54:20.104Z,16.23
2018-10-05T02:56:47.384Z,16.24
2018-10-05T02:59:14.703Z,16.22
2018-10-05T03:01:53.485Z,16.21
2018-10-05T03:04:20.753Z,16.31
2018-10-05T03:06:48.067Z,16.17
2018-10-05T03:09:15.341Z,16.22
2018-10-05T03:11:42.745Z,16.12
2018-10-05T03:14:10.019Z,16.12
2018-10-05T03:16:37.288Z,15.98
2018-10-05T03:19:04.591Z,15.96
2018-10-05T03:21:31.846Z,16.00
2018-10-05T03:23:59.137Z,16.05
2018-10-05T03:26:26.419Z,15.98
2018-10-05T03:28:53.703Z,15.87
2018-10-05T03:31:21.005Z,15.84
2018-10-05T03:33:48.282Z,15.82
2018-10-05T03:36:15.580Z,15.78
2018-10-05T03:38:42.841Z,15.76
2018-10-05T03:41:10.226Z,15.67
2018-10-05T03:43:37.528Z,15.62
2018-10-05T03:46:04.821Z,15.63
2018-10-05T03:48:32.125Z,15.54
2018-10-05T03:50:59.417Z,15.49
2018-10-05T03:53:26.699Z,15.60
2018-10-05T03:55:53.985Z,15.61
2018-10-05T03:58:22.043Z,15.57
2018-10-05T04:00:49.379Z,15.53
2018-10-05T04:03:16.660Z,15.58
2018-10-05T04:05:43.913Z,15.60
2018-10-05T04:08:11.294Z,15.56
2018-10-05T04:10:38.575Z,15.53
2018-10-05T04:13:05.984Z,15.43
2018-10-05T04:15:33.333Z,15.57
2018-10-05T04:18:00.710Z,15.56
2018-10-05T04:20:27.978Z,15.45
2018-10-05T04:22:55.331Z,15.35
2018-10-05T04:25:22.625Z,15.43
2018-10-05T04:27:49.902Z,15.49
2018-10-05T04:30:17.218Z,15.44
2018-10-05T04:32:53.489Z,15.45
2018-10-05T04:35:20.775Z,15.47
2018-10-05T04:37:48.057Z,15.50
2018-10-05T04:40:15.394Z,15.49
2018-10-05T04:42:42.689Z,15.58
2018-10-05T04:45:10.025Z,15.57
2018-10-05T04:47:37.353Z,15.66
2018-10-05T04:50:04.681Z,15.59
2018-10-05T04:52:31.972Z,15.34
2018-10-05T04:54:59.363Z,15.21
2018-10-05T04:57:26.711Z,15.34
2018-10-05T04:59:53.995Z,15.32
2018-10-05T05:02:21.349Z,15.26
2018-10-05T05:04:48.629Z,15.31
2018-10-05T05:07:15.934Z,15.32
2018-10-05T05:09:43.225Z,15.23
2018-10-05T05:12:10.575Z,15.32
2018-10-05T05:14:37.840Z,15.14
2018-10-05T05:17:05.136Z,15.13
2018-10-05T05:19:32.443Z,15.19
2018-10-05T05:21:59.672Z,15.20
2018-10-05T05:24:26.959Z,15.11
2018-10-05T05:26:54.304Z,15.10
2018-10-05T05:29:21.600Z,15.23
2018-10-05T05:31:48.886Z,15.14
2018-10-05T05:34:16.163Z,15.13
2018-10-05T05:36:43.485Z,15.18
2018-10-05T05:39:10.778Z,14.96
2018-10-05T05:41:38.126Z,15.11
2018-10-05T05:44:05.458Z,15.18
2018-10-05T05:46:32.984Z,15.12
2018-10-05T05:49:00.322Z,15.16
2018-10-05T05:51:27.610Z,15.08
2018-10-05T05:53:54.995Z,15.38
2018-10-05T05:56:22.263Z,15.46
2018-10-05T05:58:49.651Z,15.56
2018-10-05T06:01:16.992Z,15.52
2018-10-05T06:03:44.294Z,15.63
2018-10-05T06:06:11.654Z,15.65
2018-10-05T06:08:38.907Z,15.68
2018-10-05T06:11:06.779Z,15.62
2018-10-05T06:13:34.090Z,15.69
2018-10-05T06:16:01.478Z,15.96
2018-10-05T06:18:28.744Z,15.84
2018-10-05T06:20:56.072Z,16.07
2018-10-05T06:23:23.912Z,16.16
2018-10-05T06:25:51.277Z,16.12
2018-10-05T06:28:18.642Z,16.17
2018-10-05T06:30:45.929Z,16.15
2018-10-05T06:33:13.230Z,16.36
2018-10-05T06:35:40.516Z,16.38
2018-10-05T06:38:07.947Z,16.43
2018-10-05T06:40:35.314Z,16.41
2018-10-05T06:43:02.579Z,16.46
2018-10-05T06:45:29.926Z,16.51
2018-10-05T06:47:57.194Z,16.58
2018-10-05T06:50:24.722Z,16.52
2018-10-05T06:52:52.490Z,16.66
2018-10-05T06:55:19.858Z,16.81
2018-10-05T06:57:47.144Z,16.96
2018-10-05T07:00:14.539Z,17.02
2018-10-05T07:02:50.073Z,17.21
2018-10-05T07:05:17.379Z,17.25
2018-10-05T07:07:44.775Z,17.28
2018-10-05T07:10:11.983Z,17.30
2018-10-05T07:12:39.329Z,17.34
2018-10-05T07:15:06.672Z,17.44
2018-10-05T07:17:33.983Z,17.48
2018-10-05T07:20:01.500Z,17.44
2018-10-05T07:22:28.806Z,17.27
2018-10-05T07:24:56.107Z,17.34
2018-10-05T07:27:23.500Z,17.61
2018-10-05T07:29:50.750Z,17.65
2018-10-05T07:32:18.119Z,17.81
2018-10-05T07:34:45.457Z,17.82
2018-10-05T07:37:12.790Z,17.92
2018-10-05T07:39:40.019Z,18.04
2018-10-05T07:42:07.334Z,18.08
2018-10-05T07:44:34.684Z,18.21
2018-10-05T07:47:01.959Z,18.38
2018-10-05T07:49:29.343Z,18.50
2018-10-05T07:51:56.665Z,18.50
2018-10-05T07:54:23.969Z,18.55
2018-10-05T07:56:51.313Z,18.41
2018-10-05T07:59:18.605Z,18.64
2018-10-05T08:01:45.985Z,18.65
2018-10-05T08:04:13.287Z,18.73
2018-10-05T08:06:40.588Z,18.80
2018-10-05T08:09:07.874Z,18.83
2018-10-05T08:11:35.197Z,18.91
2018-10-05T08:14:02.528Z,19.05
2018-10-05T08:16:29.800Z,19.09
2018-10-05T08:18:57.120Z,19.27
2018-10-05T08:21:24.437Z,19.36
2018-10-05T08:23:51.777Z,19.47
2018-10-05T08:26:19.416Z,19.73
2018-10-05T08:28:46.926Z,19.87
2018-10-05T08:31:14.279Z,19.88
2018-10-05T08:33:41.684Z,20.04
2018-10-05T08:36:09.063Z,20.16
2018-10-05T08:38:36.438Z,20.39
2018-10-05T08:41:03.787Z,20.47
2018-10-05T08:43:31.066Z,20.69
2018-10-05T08:45:58.359Z,20.82
2018-10-05T08:48:25.657Z,20.77
2018-10-05T08:50:53.063Z,20.75
2018-10-05T08:53:20.574Z,20.79
2018-10-05T08:55:47.954Z,20.81
2018-10-05T08:58:15.367Z,20.93
2018-10-05T09:00:42.736Z,21.09
2018-10-05T09:03:10.120Z,21.23
2018-10-05T09:05:37.515Z,21.17
2018-10-05T09:08:05.059Z,21.24
2018-10-05T09:10:32.445Z,21.31
2018-10-05T09:12:59.767Z,21.28
2018-10-05T09:15:27.335Z,21.51
2018-10-05T09:17:54.729Z,21.54
2018-10-05T09:20:22.191Z,21.47
2018-10-05T09:22:49.527Z,21.62
2018-10-05T09:25:16.950Z,21.83
2018-10-05T09:27:44.260Z,22.01
2018-10-05T09:30:12.094Z,21.80
2018-10-05T09:32:39.449Z,21.92
2018-10-05T09:35:06.727Z,22.06
2018-10-05T09:37:34.216Z,21.88
2018-10-05T09:40:01.506Z,22.16
2018-10-05T09:42:28.963Z,22.26
2018-10-05T09:44:56.832Z,22.41
2018-10-05T09:47:24.537Z,22.31
2018-10-05T09:49:51.795Z,22.50
2018-10-05T09:52:19.207Z,22.46
2018-10-05T09:54:46.412Z,22.85
2018-10-05T09:59:40.502Z,22.89
2018-10-05T10:02:13.456Z,23.03
2018-10-05T10:04:40.779Z,23.23
2018-10-05T10:07:08.993Z,23.08
2018-10-05T10:09:36.402Z,23.15
2018-10-05T10:12:03.678Z,23.12
2018-10-05T10:14:31.124Z,23.37
2018-10-05T10:16:58.362Z,23.68
2018-10-05T10:19:25.696Z,23.68
2018-10-05T10:21:53.125Z,23.46
2018-10-05T10:24:20.570Z,23.68
2018-10-05T10:26:47.968Z,23.80
2018-10-05T10:29:15.357Z,23.84
2018-10-05T10:31:42.695Z,23.97
2018-10-05T10:34:10.147Z,23.91
2018-10-05T10:36:37.423Z,23.43
2018-10-05T10:39:06.720Z,23.36
2018-10-05T10:41:33.997Z,24.15
2018-10-05T10:44:01.346Z,24.48
2018-10-05T10:46:28.618Z,24.59
2018-10-05T10:48:55.926Z,24.72
2018-10-05T10:51:23.328Z,24.83
2018-10-05T10:53:50.755Z,24.90
2018-10-05T10:56:18.013Z,24.47
2018-10-05T10:58:45.291Z,24.92
2018-10-05T11:01:12.596Z,25.29
2018-10-05T11:03:39.944Z,25.12
2018-10-05T11:06:08.834Z,25.67
2018-10-05T11:08:36.157Z,25.89
2018-10-05T11:11:03.520Z,26.04
2018-10-05T11:13:30.866Z,26.55
2018-10-05T11:15:58.286Z,26.85
2018-10-05T11:18:25.649Z,26.94
2018-10-05T11:20:53.087Z,27.05
2018-10-05T11:23:20.520Z,26.90
2018-10-05T11:25:47.958Z,27.44
2018-10-05T11:28:15.524Z,27.89
2018-10-05T11:30:42.927Z,27.96
2018-10-05T11:33:10.372Z,26.94
2018-10-05T11:35:37.682Z,26.81
2018-10-05T11:38:06.337Z,27.33
2018-10-05T11:40:33.947Z,27.99
2018-10-05T11:43:02.156Z,28.09
2018-10-05T11:45:29.527Z,27.78
2018-10-05T11:47:56.816Z,28.00
2018-10-05T11:50:24.709Z,28.27
2018-10-05T11:52:52.217Z,28.30
2018-10-05T11:55:19.584Z,28.50
2018-10-05T11:57:46.886Z,28.51
2018-10-05T12:00:17.281Z,28.82
2018-10-05T12:02:45.540Z,28.79
2018-10-05T12:05:13.001Z,29.16
2018-10-05T12:07:40.209Z,28.92
2018-10-05T12:10:07.497Z,28.65
2018-10-05T12:12:34.803Z,29.48
2018-10-05T12:15:02.138Z,29.92
2018-10-05T12:17:36.267Z,29.54
2018-10-05T12:20:03.967Z,29.52
2018-10-05T12:22:31.569Z,30.12
2018-10-05T12:24:59.364Z,29.69
2018-10-05T12:27:26.952Z,30.26
2018-10-05T12:29:54.925Z,29.79
2018-10-05T12:32:22.428Z,29.54
2018-10-05T12:34:49.794Z,28.55
2018-10-05T12:37:17.183Z,28.72
2018-10-05T12:39:44.572Z,29.17
2018-10-05T12:42:12.530Z,29.09
2018-10-05T12:44:39.816Z,29.87
2018-10-05T12:47:07.338Z,29.82
2018-10-05T12:49:34.692Z,30.73
2018-10-05T12:52:10.568Z,30.76
2018-10-05T12:54:38.632Z,30.60
2018-10-05T12:57:06.016Z,30.75
2018-10-05T12:59:33.379Z,30.56
2018-10-05T13:02:00.648Z,30.70
2018-10-05T13:04:27.986Z,30.90
2018-10-05T13:06:55.202Z,30.79
2018-10-05T13:09:22.610Z,30.26
2018-10-05T13:11:50.107Z,30.27
2018-10-05T13:14:17.411Z,29.64
2018-10-05T13:16:44.745Z,29.78
2018-10-05T13:19:12.199Z,30.35
2018-10-05T13:21:39.593Z,30.35
2018-10-05T13:24:06.978Z,29.85
2018-10-05T13:26:35.227Z,30.69
2018-10-05T13:29:03.274Z,29.89
2018-10-05T13:31:32.204Z,30.27
2018-10-05T13:33:59.586Z,30.16
2018-10-05T13:36:26.794Z,30.88
2018-10-05T13:38:54.369Z,30.67
2018-10-05T13:41:21.624Z,30.96
2018-10-05T13:43:48.965Z,31.08
2018-10-05T13:46:16.332Z,31.24
2018-10-05T13:48:43.673Z,30.98
2018-10-05T13:51:11.720Z,30.84
2018-10-05T13:53:38.993Z,30.60
2018-10-05T13:56:06.937Z,30.67
2018-10-05T13:58:34.267Z,30.45
2018-10-05T14:01:01.567Z,30.79
2018-10-05T14:03:28.840Z,30.03
2018-10-05T14:05:56.261Z,30.39
2018-10-05T14:08:23.521Z,30.01
2018-10-05T14:10:50.998Z,30.17
2018-10-05T14:13:18.262Z,30.14
2018-10-05T14:15:45.568Z,30.24
2018-10-05T14:18:12.866Z,29.90
2018-10-05T14:20:40.340Z,30.38
2018-10-05T14:23:07.469Z,30.77
2018-10-05T14:25:35.466Z,31.20
2018-10-05T14:28:02.930Z,30.65
2018-10-05T14:30:30.452Z,30.25
2018-10-05T14:32:57.792Z,29.94
2018-10-05T14:35:25.059Z,30.02
2018-10-05T14:37:52.398Z,29.82
2018-10-05T14:40:19.743Z,29.81
2018-10-05T14:42:47.162Z,29.83
2018-10-05T14:45:14.447Z,30.25
2018-10-05T14:47:43.028Z,30.50
2018-10-05T14:50:10.450Z,30.03
2018-10-05T14:52:38.457Z,30.22
2018-10-05T14:55:05.872Z,30.58
2018-10-05T14:57:33.264Z,30.40
2018-10-05T15:00:00.561Z,30.49
2018-10-05T15:02:27.920Z,30.61
2018-10-05T15:04:55.769Z,30.86
2018-10-05T15:07:23.156Z,30.85
2018-10-05T15:09:50.475Z,30.42
2018-10-05T15:12:17.859Z,30.04
2018-10-05T15:14:45.161Z,29.80
2018-10-05T15:17:13.582Z,29.85
2018-10-05T15:19:41.005Z,29.85
2018-10-05T15:22:08.549Z,29.47
2018-10-05T15:24:35.846Z,29.18
2018-10-05T15:27:03.327Z,28.90
2018-10-05T15:29:30.739Z,28.60
2018-10-05T15:31:58.075Z,28.46
2018-10-05T15:34:25.433Z,28.54
2018-10-05T15:36:52.793Z,28.48
2018-10-05T15:39:20.229Z,28.31
2018-10-05T15:41:47.611Z,27.95
2018-10-05T15:44:14.951Z,27.72
2018-10-05T15:46:53.504Z,27.74
2018-10-05T15:49:20.823Z,27.87
2018-10-05T15:51:48.442Z,27.78
2018-10-05T15:54:15.790Z,27.58
2018-10-05T15:56:43.111Z,27.52
2018-10-05T15:59:10.566Z,27.29
2018-10-05T16:01:38.598Z,27.14
2018-10-05T16:04:05.986Z,27.25
2018-10-05T16:06:34.114Z,27.13
2018-10-05T16:09:01.570Z,26.87
2018-10-05T16:11:28.892Z,26.85
2018-10-05T16:13:56.229Z,26.67
2018-10-05T16:16:23.506Z,26.53
2018-10-05T16:18:50.820Z,26.22
2018-10-05T16:21:18.147Z,26.04
2018-10-05T16:23:45.557Z,25.85
2018-10-05T16:26:12.971Z,25.61
2018-10-05T16:28:40.285Z,25.38
2018-10-05T16:31:07.623Z,25.13
2018-10-05T16:33:35.039Z,24.95
2018-10-05T16:36:02.365Z,24.81
2018-10-05T16:38:29.658Z,24.68
2018-10-05T16:40:57.057Z,24.67
2018-10-05T16:43:24.539Z,24.56
2018-10-05T16:45:53.214Z,24.50
2018-10-05T16:48:20.620Z,24.32
2018-10-05T16:50:48.009Z,24.16
2018-10-05T16:53:15.403Z,24.08
2018-10-05T16:55:42.869Z,24.03
2018-10-05T16:58:10.263Z,23.99
2018-10-05T17:00:37.606Z,23.99
2018-10-05T17:03:07.020Z,23.81
2018-10-05T17:05:34.320Z,23.68
2018-10-05T17:08:01.744Z,23.57
2018-10-05T17:10:29.160Z,23.47
2018-10-05T17:12:56.506Z,23.24
2018-10-05T17:15:23.866Z,23.15
2018-10-05T17:17:51.204Z,23.26
2018-10-05T17:20:18.518Z,23.10
2018-10-05T17:22:45.816Z,23.01
2018-10-05T17:25:13.108Z,23.00
2018-10-05T17:27:40.458Z,22.87
2018-10-05T17:30:07.828Z,22.79
2018-10-05T17:32:35.270Z,22.68
2018-10-05T17:35:02.580Z,22.59
2018-10-05T17:37:29.903Z,22.62
2018-10-05T17:39:57.208Z,22.53
2018-10-05T17:42:24.540Z,22.41
2018-10-05T17:44:51.886Z,22.29
2018-10-05T17:47:19.197Z,22.25
2018-10-05T17:49:46.548Z,22.19
2018-10-05T17:52:13.843Z,22.13
2018-10-05T17:54:41.269Z,22.03
2018-10-05T17:57:08.578Z,21.97
2018-10-05T17:59:35.994Z,21.91
2018-10-05T18:02:03.321Z,21.73
2018-10-05T18:04:30.678Z,21.70
2018-10-05T18:06:58.077Z,21.75
2018-10-05T18:09:25.446Z,21.70
2018-10-05T18:11:52.907Z,21.64
2018-10-05T18:14:20.200Z,21.55
2018-10-05T18:16:47.639Z,21.44
2018-10-05T18:19:14.964Z,21.49
2018-10-05T18:21:42.495Z,21.31
2018-10-05T18:24:09.819Z,21.15
2018-10-05T18:26:37.125Z,21.18
2018-10-05T18:29:04.769Z,21.12
2018-10-05T18:31:32.083Z,21.07
2018-10-05T18:33:59.416Z,21.03
2018-10-05T18:36:26.679Z,21.02
2018-10-05T18:38:54.026Z,20.95
2018-10-05T18:41:21.416Z,20.98
2018-10-05T18:43:48.606Z,20.87
2018-10-05T18:46:15.963Z,20.42
2018-10-05T18:48:43.294Z,20.55
2018-10-05T18:51:10.627Z,20.70
2018-10-05T18:53:38.009Z,20.77
2018-10-05T18:56:16.780Z,20.61
2018-10-05T18:58:44.158Z,20.60
2018-10-05T19:01:11.458Z,20.60
2018-10-05T19:03:38.790Z,20.49
2018-10-05T19:06:06.106Z,20.48
2018-10-05T19:08:33.412Z,20.27
2018-10-05T19:11:00.706Z,20.26
2018-10-05T19:13:28.071Z,19.92
2018-10-05T19:15:55.554Z,20.18
2018-10-05T19:18:22.868Z,20.20
2018-10-05T19:20:50.194Z,20.14
2018-10-05T19:23:17.578Z,20.02
2018-10-05T19:25:44.926Z,20.00
2018-10-05T19:28:12.273Z,20.06
2018-10-05T19:30:39.649Z,19.86
2018-10-05T19:33:07.115Z,19.97
2018-10-05T19:35:34.449Z,20.02
2018-10-05T19:38:01.780Z,19.87
2018-10-05T19:40:29.118Z,19.64
2018-10-05T19:42:56.546Z,19.73
2018-10-05T19:45:23.900Z,19.69
2018-10-05T19:47:51.309Z,19.67
2018-10-05T19:50:19.200Z,19.66
2018-10-05T19:52:46.623Z,19.54
2018-10-05T19:55:13.953Z,19.58
2018-10-05T19:57:41.305Z,19.38
2018-10-05T20:00:08.767Z,19.50
2018-10-05T20:02:36.028Z,19.46
2018-10-05T20:05:03.370Z,19.42
2018-10-05T20:07:30.732Z,19.45
2018-10-05T20:09:58.156Z,19.34
2018-10-05T20:12:25.499Z,19.29
2018-10-05T20:14:52.840Z,19.31
2018-10-05T20:17:20.194Z,19.29
2018-10-05T20:19:47.489Z,19.31
2018-10-05T20:22:14.778Z,19.30
2018-10-05T20:24:42.076Z,19.20
2018-10-05T20:27:09.688Z,19.25
2018-10-05T20:29:37.027Z,19.04
2018-10-05T20:32:04.374Z,19.07
2018-10-05T20:34:31.773Z,18.96
2018-10-05T20:36:59.339Z,18.94
2018-10-05T20:39:26.506Z,18.80
2018-10-05T20:41:53.941Z,18.87
2018-10-05T20:44:21.304Z,18.98
2018-10-05T20:46:48.648Z,18.97
2018-10-05T20:49:16.049Z,18.82
2018-10-05T20:51:43.433Z,18.76
2018-10-05T20:54:10.765Z,18.73
2018-10-05T20:56:38.168Z,18.65
2018-10-05T20:59:05.504Z,18.57
2018-10-05T21:01:32.942Z,18.48
2018-10-05T21:04:00.199Z,18.47
2018-10-05T21:06:27.510Z,18.35
2018-10-05T21:08:54.837Z,18.35
2018-10-05T21:11:22.230Z,18.28
2018-10-05T21:13:49.564Z,18.35
2018-10-05T21:16:16.925Z,18.31
2018-10-05T21:18:44.325Z,18.25
2018-10-05T21:21:11.637Z,18.26
2018-10-05T21:23:38.981Z,18.22
2018-10-05T21:26:06.373Z,18.18
2018-10-05T21:28:33.716Z,18.30
2018-10-05T21:31:01.020Z,18.22
2018-10-05T21:33:28.457Z,18.11
2018-10-05T21:35:55.728Z,18.09
2018-10-05T21:38:23.136Z,18.16
2018-10-05T21:40:50.436Z,18.25
2018-10-05T21:43:17.710Z,18.16
2018-10-05T21:45:44.996Z,18.19
2018-10-05T21:48:12.314Z,17.84
2018-10-05T21:50:39.601Z,18.00
2018-10-05T21:53:07.005Z,18.02
2018-10-05T21:55:34.302Z,17.84
2018-10-05T21:58:01.699Z,17.87
2018-10-05T22:00:34.792Z,17.86
2018-10-05T22:03:02.045Z,17.81
2018-10-05T22:05:29.361Z,17.75
2018-10-05T22:07:56.605Z,17.85
2018-10-05T22:10:23.876Z,17.71
2018-10-05T22:12:51.144Z,17.62
2018-10-05T22:15:18.472Z,17.54
2018-10-05T22:17:45.755Z,17.64
2018-10-05T22:20:13.068Z,17.68
2018-10-05T22:22:40.315Z,17.55
2018-10-05T22:25:07.623Z,17.53
2018-10-05T22:27:34.928Z,17.61
2018-10-05T22:30:02.245Z,17.56
2018-10-05T22:32:29.605Z,17.48
2018-10-05T22:34:56.907Z,17.50
2018-10-05T22:37:24.143Z,17.44
2018-10-05T22:39:51.405Z,17.44
2018-10-05T22:42:18.717Z,17.07
2018-10-05T22:44:45.995Z,17.23
2018-10-05T22:47:13.297Z,17.22
2018-10-05T22:49:40.589Z,17.24
2018-10-05T22:52:07.851Z,17.18
2018-10-05T22:54:35.151Z,17.18
2018-10-05T22:57:02.429Z,17.24
2018-10-05T22:59:29.722Z,17.06
2018-10-05T23:01:57.012Z,16.82
2018-10-05T23:04:24.291Z,17.19
2018-10-05T23:06:51.606Z,17.24
2018-10-05T23:09:18.861Z,16.93
2018-10-05T23:11:46.175Z,17.33
2018-10-05T23:14:13.464Z,17.16
2018-10-05T23:16:40.866Z,17.13
2018-10-05T23:19:08.138Z,17.08
2018-10-05T23:21:35.423Z,17.14
2018-10-05T23:24:02.720Z,17.09
2018-10-05T23:26:30.051Z,17.13
2018-10-05T23:28:57.318Z,16.97
2018-10-05T23:31:24.680Z,17.18
2018-10-05T23:33:51.956Z,17.27
2018-10-05T23:36:19.226Z,17.27
2018-10-05T23:38:46.502Z,17.23
2018-10-05T23:41:13.853Z,17.22
2018-10-05T23:43:41.106Z,17.36
2018-10-05T23:46:08.534Z,17.29
2018-10-05T23:48:35.952Z,17.20
2018-10-05T23:51:03.304Z,17.25
2018-10-05T23:53:30.580Z,17.31
2018-10-05T23:55:57.813Z,17.35
2018-10-05T23:58:25.116Z,17.35
